sensor_id;sensor_type;location;lat;lon;timestamp;P1;durP1;ratioP1;P2;durP2;ratioP2
47912;SDS011;33676;51.006;17.180;2024-01-06T00:01:25;40.50;;;27.60;;
47912;SDS011;33676;51.006;17.180;2024-01-06T00:03:54;43.90;;;27.60;;
47912;SDS011;33676;51.006;17.180;2024-01-06T00:06:23;38.00;;;26.60;;
47912;SDS011;33676;51.006;17.180;2024-01-06T00:08:53;39.80;;;26.10;;
47912;SDS011;33676;51.006;17.180;2024-01-06T00:11:23;36.90;;;25.60;;
47912;SDS011;33676;51.006;17.180;2024-01-06T00:13:51;39.10;;;26.70;;
47912;SDS011;33676;51.006;17.180;2024-01-06T00:16:20;39.90;;;26.30;;
47912;SDS011;33676;51.006;17.180;2024-01-06T00:18:49;39.00;;;28.20;;
47912;SDS011;33676;51.006;17.180;2024-01-06T00:21:17;48.80;;;30.00;;
47912;SDS011;33676;51.006;17.180;2024-01-06T00:23:46;44.10;;;27.40;;
47912;SDS011;33676;51.006;17.180;2024-01-06T00:26:14;35.30;;;25.40;;
47912;SDS011;33676;51.006;17.180;2024-01-06T00:28:43;38.40;;;26.30;;
47912;SDS011;33676;51.006;17.180;2024-01-06T00:31:12;42.40;;;27.70;;
47912;SDS011;33676;51.006;17.180;2024-01-06T00:33:40;41.60;;;28.50;;
47912;SDS011;33676;51.006;17.180;2024-01-06T00:36:09;45.80;;;25.90;;
47912;SDS011;33676;51.006;17.180;2024-01-06T00:38:38;42.60;;;28.30;;
47912;SDS011;33676;51.006;17.180;2024-01-06T00:41:07;39.40;;;27.20;;
47912;SDS011;33676;51.006;17.180;2024-01-06T00:43:35;40.70;;;28.30;;
47912;SDS011;33676;51.006;17.180;2024-01-06T00:46:04;44.70;;;30.30;;
47912;SDS011;33676;51.006;17.180;2024-01-06T00:48:32;37.90;;;27.90;;
47912;SDS011;33676;51.006;17.180;2024-01-06T00:51:01;40.50;;;27.90;;
47912;SDS011;33676;51.006;17.180;2024-01-06T00:53:29;38.90;;;27.50;;
47912;SDS011;33676;51.006;17.180;2024-01-06T00:55:58;44.50;;;27.50;;
47912;SDS011;33676;51.006;17.180;2024-01-06T00:58:26;36.60;;;26.40;;
47912;SDS011;33676;51.006;17.180;2024-01-06T01:00:55;44.10;;;28.20;;
47912;SDS011;33676;51.006;17.180;2024-01-06T01:03:23;41.30;;;28.60;;
47912;SDS011;33676;51.006;17.180;2024-01-06T01:05:52;44.20;;;29.20;;
47912;SDS011;33676;51.006;17.180;2024-01-06T01:08:20;54.60;;;29.90;;
47912;SDS011;33676;51.006;17.180;2024-01-06T01:10:49;48.30;;;31.20;;
47912;SDS011;33676;51.006;17.180;2024-01-06T01:13:17;41.50;;;29.00;;
47912;SDS011;33676;51.006;17.180;2024-01-06T01:15:46;48.30;;;29.90;;
47912;SDS011;33676;51.006;17.180;2024-01-06T01:18:14;50.60;;;33.20;;
47912;SDS011;33676;51.006;17.180;2024-01-06T01:20:43;45.70;;;31.80;;
47912;SDS011;33676;51.006;17.180;2024-01-06T01:23:12;40.40;;;28.40;;
47912;SDS011;33676;51.006;17.180;2024-01-06T01:25:41;40.30;;;27.30;;
47912;SDS011;33676;51.006;17.180;2024-01-06T01:28:09;50.00;;;31.20;;
47912;SDS011;33676;51.006;17.180;2024-01-06T01:30:38;41.30;;;29.00;;
47912;SDS011;33676;51.006;17.180;2024-01-06T01:33:06;45.90;;;28.70;;
47912;SDS011;33676;51.006;17.180;2024-01-06T01:35:35;43.50;;;27.20;;
47912;SDS011;33676;51.006;17.180;2024-01-06T01:38:04;40.60;;;28.40;;
47912;SDS011;33676;51.006;17.180;2024-01-06T01:40:33;39.30;;;29.30;;
47912;SDS011;33676;51.006;17.180;2024-01-06T01:43:01;50.90;;;31.70;;
47912;SDS011;33676;51.006;17.180;2024-01-06T01:45:30;53.10;;;31.40;;
47912;SDS011;33676;51.006;17.180;2024-01-06T01:55:21;44.60;;;30.50;;
47912;SDS011;33676;51.006;17.180;2024-01-06T01:57:49;45.40;;;31.10;;
47912;SDS011;33676;51.006;17.180;2024-01-06T02:00:18;46.50;;;31.30;;
47912;SDS011;33676;51.006;17.180;2024-01-06T02:02:47;39.60;;;29.40;;
47912;SDS011;33676;51.006;17.180;2024-01-06T02:05:16;40.30;;;28.40;;
47912;SDS011;33676;51.006;17.180;2024-01-06T02:07:49;39.30;;;28.30;;
47912;SDS011;33676;51.006;17.180;2024-01-06T02:10:19;42.60;;;30.10;;
47912;SDS011;33676;51.006;17.180;2024-01-06T02:12:48;43.90;;;30.80;;
47912;SDS011;33676;51.006;17.180;2024-01-06T02:15:18;40.80;;;28.40;;
47912;SDS011;33676;51.006;17.180;2024-01-06T02:17:47;42.60;;;29.10;;
47912;SDS011;33676;51.006;17.180;2024-01-06T02:20:16;45.70;;;29.30;;
47912;SDS011;33676;51.006;17.180;2024-01-06T02:22:48;39.20;;;29.20;;
47912;SDS011;33676;51.006;17.180;2024-01-06T02:25:16;40.00;;;28.90;;
47912;SDS011;33676;51.006;17.180;2024-01-06T02:27:46;41.50;;;30.60;;
47912;SDS011;33676;51.006;17.180;2024-01-06T02:30:14;50.80;;;30.20;;
47912;SDS011;33676;51.006;17.180;2024-01-06T02:32:43;40.40;;;29.90;;
47912;SDS011;33676;51.006;17.180;2024-01-06T02:35:12;51.50;;;31.60;;
47912;SDS011;33676;51.006;17.180;2024-01-06T02:37:40;47.30;;;29.70;;
47912;SDS011;33676;51.006;17.180;2024-01-06T02:40:09;47.80;;;30.80;;
47912;SDS011;33676;51.006;17.180;2024-01-06T02:42:38;41.20;;;30.10;;
47912;SDS011;33676;51.006;17.180;2024-01-06T02:45:07;46.30;;;32.30;;
47912;SDS011;33676;51.006;17.180;2024-01-06T02:47:39;50.00;;;29.30;;
47912;SDS011;33676;51.006;17.180;2024-01-06T02:50:07;47.30;;;32.00;;
47912;SDS011;33676;51.006;17.180;2024-01-06T02:52:36;45.80;;;30.70;;
47912;SDS011;33676;51.006;17.180;2024-01-06T02:55:04;40.20;;;29.80;;
47912;SDS011;33676;51.006;17.180;2024-01-06T02:57:33;45.50;;;29.70;;
47912;SDS011;33676;51.006;17.180;2024-01-06T03:00:02;38.70;;;30.70;;
47912;SDS011;33676;51.006;17.180;2024-01-06T03:02:31;44.40;;;29.30;;
47912;SDS011;33676;51.006;17.180;2024-01-06T03:05:02;43.50;;;30.60;;
47912;SDS011;33676;51.006;17.180;2024-01-06T03:07:30;42.60;;;29.90;;
47912;SDS011;33676;51.006;17.180;2024-01-06T03:09:59;43.80;;;31.00;;
47912;SDS011;33676;51.006;17.180;2024-01-06T03:12:27;47.50;;;32.80;;
47912;SDS011;33676;51.006;17.180;2024-01-06T03:14:56;47.60;;;30.50;;
47912;SDS011;33676;51.006;17.180;2024-01-06T03:17:24;47.30;;;31.90;;
47912;SDS011;33676;51.006;17.180;2024-01-06T03:19:53;42.30;;;30.90;;
47912;SDS011;33676;51.006;17.180;2024-01-06T03:22:21;45.20;;;31.80;;
47912;SDS011;33676;51.006;17.180;2024-01-06T03:24:50;43.40;;;30.90;;
47912;SDS011;33676;51.006;17.180;2024-01-06T03:27:18;44.30;;;31.10;;
47912;SDS011;33676;51.006;17.180;2024-01-06T03:29:47;44.00;;;30.40;;
47912;SDS011;33676;51.006;17.180;2024-01-06T03:32:15;49.10;;;32.60;;
47912;SDS011;33676;51.006;17.180;2024-01-06T03:34:44;40.10;;;30.70;;
47912;SDS011;33676;51.006;17.180;2024-01-06T03:37:12;43.80;;;30.40;;
47912;SDS011;33676;51.006;17.180;2024-01-06T03:39:41;43.70;;;30.50;;
47912;SDS011;33676;51.006;17.180;2024-01-06T03:42:11;47.20;;;31.30;;
47912;SDS011;33676;51.006;17.180;2024-01-06T03:44:40;43.40;;;29.90;;
47912;SDS011;33676;51.006;17.180;2024-01-06T03:47:08;49.60;;;34.20;;
47912;SDS011;33676;51.006;17.180;2024-01-06T03:49:37;43.70;;;31.70;;
47912;SDS011;33676;51.006;17.180;2024-01-06T03:52:05;45.80;;;32.00;;
47912;SDS011;33676;51.006;17.180;2024-01-06T03:54:34;45.90;;;31.60;;
47912;SDS011;33676;51.006;17.180;2024-01-06T03:57:02;44.60;;;30.80;;
47912;SDS011;33676;51.006;17.180;2024-01-06T03:59:31;46.30;;;30.80;;
47912;SDS011;33676;51.006;17.180;2024-01-06T04:01:59;40.30;;;28.80;;
47912;SDS011;33676;51.006;17.180;2024-01-06T04:04:27;43.60;;;29.80;;
47912;SDS011;33676;51.006;17.180;2024-01-06T04:06:56;48.20;;;33.20;;
47912;SDS011;33676;51.006;17.180;2024-01-06T04:09:24;39.50;;;29.60;;
47912;SDS011;33676;51.006;17.180;2024-01-06T04:11:53;39.20;;;28.90;;
47912;SDS011;33676;51.006;17.180;2024-01-06T04:14:21;39.30;;;28.80;;
47912;SDS011;33676;51.006;17.180;2024-01-06T04:16:50;40.00;;;28.30;;
47912;SDS011;33676;51.006;17.180;2024-01-06T04:19:19;39.00;;;28.80;;
47912;SDS011;33676;51.006;17.180;2024-01-06T04:21:49;44.30;;;29.60;;
47912;SDS011;33676;51.006;17.180;2024-01-06T04:24:17;43.50;;;30.00;;
47912;SDS011;33676;51.006;17.180;2024-01-06T04:26:47;44.10;;;30.80;;
47912;SDS011;33676;51.006;17.180;2024-01-06T04:29:16;42.80;;;28.00;;
47912;SDS011;33676;51.006;17.180;2024-01-06T04:31:44;36.30;;;27.90;;
47912;SDS011;33676;51.006;17.180;2024-01-06T04:34:13;38.10;;;26.40;;
47912;SDS011;33676;51.006;17.180;2024-01-06T04:36:42;37.50;;;26.90;;
47912;SDS011;33676;51.006;17.180;2024-01-06T04:39:11;42.20;;;30.10;;
47912;SDS011;33676;51.006;17.180;2024-01-06T04:41:41;45.10;;;29.30;;
47912;SDS011;33676;51.006;17.180;2024-01-06T04:44:10;43.00;;;28.50;;
47912;SDS011;33676;51.006;17.180;2024-01-06T04:46:38;36.50;;;27.10;;
47912;SDS011;33676;51.006;17.180;2024-01-06T04:49:07;40.50;;;26.20;;
47912;SDS011;33676;51.006;17.180;2024-01-06T04:51:35;39.30;;;26.90;;
47912;SDS011;33676;51.006;17.180;2024-01-06T04:54:04;39.10;;;27.10;;
47912;SDS011;33676;51.006;17.180;2024-01-06T04:56:32;36.60;;;27.10;;
47912;SDS011;33676;51.006;17.180;2024-01-06T04:59:04;39.10;;;28.00;;
47912;SDS011;33676;51.006;17.180;2024-01-06T05:01:32;42.80;;;28.60;;
47912;SDS011;33676;51.006;17.180;2024-01-06T05:04:01;40.10;;;27.90;;
47912;SDS011;33676;51.006;17.180;2024-01-06T05:06:30;43.50;;;27.50;;
47912;SDS011;33676;51.006;17.180;2024-01-06T05:08:59;40.50;;;27.00;;
47912;SDS011;33676;51.006;17.180;2024-01-06T05:11:28;41.20;;;27.80;;
47912;SDS011;33676;51.006;17.180;2024-01-06T05:13:56;38.80;;;27.40;;
47912;SDS011;33676;51.006;17.180;2024-01-06T05:16:25;37.00;;;25.80;;
47912;SDS011;33676;51.006;17.180;2024-01-06T05:18:53;41.90;;;28.20;;
47912;SDS011;33676;51.006;17.180;2024-01-06T05:21:22;40.80;;;29.00;;
47912;SDS011;33676;51.006;17.180;2024-01-06T05:23:50;40.00;;;27.60;;
47912;SDS011;33676;51.006;17.180;2024-01-06T05:26:19;43.00;;;31.10;;
47912;SDS011;33676;51.006;17.180;2024-01-06T05:28:48;45.00;;;29.80;;
47912;SDS011;33676;51.006;17.180;2024-01-06T05:31:17;43.40;;;25.70;;
47912;SDS011;33676;51.006;17.180;2024-01-06T05:33:45;38.50;;;26.00;;
47912;SDS011;33676;51.006;17.180;2024-01-06T05:36:18;38.50;;;26.00;;
47912;SDS011;33676;51.006;17.180;2024-01-06T05:38:48;45.50;;;28.30;;
47912;SDS011;33676;51.006;17.180;2024-01-06T05:41:20;40.60;;;25.70;;
47912;SDS011;33676;51.006;17.180;2024-01-06T05:43:48;46.10;;;31.00;;
47912;SDS011;33676;51.006;17.180;2024-01-06T05:46:23;45.90;;;28.40;;
47912;SDS011;33676;51.006;17.180;2024-01-06T05:48:53;43.20;;;29.10;;
47912;SDS011;33676;51.006;17.180;2024-01-06T05:51:22;40.00;;;29.60;;
47912;SDS011;33676;51.006;17.180;2024-01-06T05:53:50;43.70;;;31.60;;
47912;SDS011;33676;51.006;17.180;2024-01-06T05:56:23;40.90;;;28.30;;
47912;SDS011;33676;51.006;17.180;2024-01-06T05:58:55;46.80;;;30.60;;
47912;SDS011;33676;51.006;17.180;2024-01-06T06:01:23;42.50;;;27.70;;
47912;SDS011;33676;51.006;17.180;2024-01-06T06:03:52;45.70;;;30.00;;
47912;SDS011;33676;51.006;17.180;2024-01-06T06:06:20;49.70;;;29.90;;
47912;SDS011;33676;51.006;17.180;2024-01-06T06:08:49;43.00;;;29.60;;
47912;SDS011;33676;51.006;17.180;2024-01-06T06:11:18;43.20;;;29.40;;
47912;SDS011;33676;51.006;17.180;2024-01-06T06:13:47;44.30;;;28.30;;
47912;SDS011;33676;51.006;17.180;2024-01-06T06:16:17;40.00;;;26.70;;
47912;SDS011;33676;51.006;17.180;2024-01-06T06:18:45;43.20;;;26.20;;
47912;SDS011;33676;51.006;17.180;2024-01-06T06:21:14;36.90;;;26.60;;
47912;SDS011;33676;51.006;17.180;2024-01-06T06:23:44;38.10;;;27.50;;
47912;SDS011;33676;51.006;17.180;2024-01-06T06:26:12;38.30;;;26.60;;
47912;SDS011;33676;51.006;17.180;2024-01-06T06:28:41;39.20;;;25.20;;
47912;SDS011;33676;51.006;17.180;2024-01-06T06:31:09;42.80;;;27.40;;
47912;SDS011;33676;51.006;17.180;2024-01-06T06:33:38;41.80;;;26.70;;
47912;SDS011;33676;51.006;17.180;2024-01-06T06:36:07;40.50;;;24.90;;
47912;SDS011;33676;51.006;17.180;2024-01-06T06:38:36;45.40;;;28.30;;
47912;SDS011;33676;51.006;17.180;2024-01-06T06:41:04;34.50;;;23.60;;
47912;SDS011;33676;51.006;17.180;2024-01-06T06:43:33;35.00;;;25.20;;
47912;SDS011;33676;51.006;17.180;2024-01-06T06:46:02;35.90;;;24.80;;
47912;SDS011;33676;51.006;17.180;2024-01-06T06:48:30;33.10;;;24.60;;
47912;SDS011;33676;51.006;17.180;2024-01-06T06:50:59;35.00;;;24.20;;
47912;SDS011;33676;51.006;17.180;2024-01-06T06:53:28;31.80;;;22.60;;
47912;SDS011;33676;51.006;17.180;2024-01-06T06:55:58;30.90;;;22.50;;
47912;SDS011;33676;51.006;17.180;2024-01-06T06:58:26;34.80;;;24.30;;
47912;SDS011;33676;51.006;17.180;2024-01-06T07:00:55;34.30;;;25.20;;
47912;SDS011;33676;51.006;17.180;2024-01-06T07:03:23;32.40;;;25.30;;
47912;SDS011;33676;51.006;17.180;2024-01-06T07:05:52;39.10;;;25.30;;
47912;SDS011;33676;51.006;17.180;2024-01-06T07:08:20;30.00;;;23.50;;
47912;SDS011;33676;51.006;17.180;2024-01-06T07:10:49;28.50;;;21.50;;
47912;SDS011;33676;51.006;17.180;2024-01-06T07:13:17;33.10;;;21.90;;
47912;SDS011;33676;51.006;17.180;2024-01-06T07:15:46;33.50;;;21.00;;
47912;SDS011;33676;51.006;17.180;2024-01-06T07:18:14;29.30;;;21.40;;
47912;SDS011;33676;51.006;17.180;2024-01-06T07:20:43;30.00;;;21.70;;
47912;SDS011;33676;51.006;17.180;2024-01-06T07:23:11;31.30;;;22.20;;
47912;SDS011;33676;51.006;17.180;2024-01-06T07:25:40;30.90;;;22.30;;
47912;SDS011;33676;51.006;17.180;2024-01-06T07:28:08;32.00;;;21.30;;
47912;SDS011;33676;51.006;17.180;2024-01-06T07:30:37;31.10;;;22.90;;
47912;SDS011;33676;51.006;17.180;2024-01-06T07:33:05;28.60;;;21.80;;
47912;SDS011;33676;51.006;17.180;2024-01-06T07:35:34;30.40;;;21.00;;
47912;SDS011;33676;51.006;17.180;2024-01-06T07:38:03;26.50;;;22.20;;
47912;SDS011;33676;51.006;17.180;2024-01-06T07:40:31;30.40;;;21.30;;
47912;SDS011;33676;51.006;17.180;2024-01-06T07:43:00;44.60;;;29.90;;
47912;SDS011;33676;51.006;17.180;2024-01-06T07:45:30;35.40;;;22.30;;
47912;SDS011;33676;51.006;17.180;2024-01-06T07:48:00;31.00;;;21.80;;
47912;SDS011;33676;51.006;17.180;2024-01-06T07:50:29;28.10;;;21.10;;
47912;SDS011;33676;51.006;17.180;2024-01-06T07:52:58;27.30;;;21.40;;
47912;SDS011;33676;51.006;17.180;2024-01-06T07:55:26;28.40;;;21.50;;
47912;SDS011;33676;51.006;17.180;2024-01-06T07:57:57;28.60;;;20.70;;
47912;SDS011;33676;51.006;17.180;2024-01-06T08:00:25;28.20;;;20.10;;
47912;SDS011;33676;51.006;17.180;2024-01-06T08:02:54;30.00;;;21.60;;
47912;SDS011;33676;51.006;17.180;2024-01-06T08:05:22;26.40;;;21.40;;
47912;SDS011;33676;51.006;17.180;2024-01-06T08:07:51;28.20;;;20.50;;
47912;SDS011;33676;51.006;17.180;2024-01-06T08:10:20;29.50;;;21.20;;
47912;SDS011;33676;51.006;17.180;2024-01-06T08:12:49;25.60;;;20.80;;
47912;SDS011;33676;51.006;17.180;2024-01-06T08:15:17;28.20;;;22.20;;
47912;SDS011;33676;51.006;17.180;2024-01-06T08:17:46;29.20;;;21.40;;
47912;SDS011;33676;51.006;17.180;2024-01-06T08:20:15;27.60;;;19.90;;
47912;SDS011;33676;51.006;17.180;2024-01-06T08:22:43;25.30;;;20.40;;
47912;SDS011;33676;51.006;17.180;2024-01-06T08:25:12;32.40;;;24.10;;
47912;SDS011;33676;51.006;17.180;2024-01-06T08:27:41;30.40;;;22.70;;
47912;SDS011;33676;51.006;17.180;2024-01-06T08:30:10;29.90;;;22.00;;
47912;SDS011;33676;51.006;17.180;2024-01-06T08:32:40;26.80;;;21.60;;
47912;SDS011;33676;51.006;17.180;2024-01-06T08:35:09;27.60;;;20.20;;
47912;SDS011;33676;51.006;17.180;2024-01-06T08:37:38;28.90;;;22.30;;
47912;SDS011;33676;51.006;17.180;2024-01-06T08:40:08;30.40;;;22.50;;
47912;SDS011;33676;51.006;17.180;2024-01-06T08:42:38;30.80;;;23.70;;
47912;SDS011;33676;51.006;17.180;2024-01-06T08:45:06;25.40;;;19.20;;
47912;SDS011;33676;51.006;17.180;2024-01-06T08:47:35;28.20;;;21.20;;
47912;SDS011;33676;51.006;17.180;2024-01-06T08:50:05;30.20;;;21.50;;
47912;SDS011;33676;51.006;17.180;2024-01-06T08:52:35;24.60;;;19.90;;
47912;SDS011;33676;51.006;17.180;2024-01-06T08:55:04;25.50;;;21.30;;
47912;SDS011;33676;51.006;17.180;2024-01-06T08:57:34;27.30;;;20.20;;
47912;SDS011;33676;51.006;17.180;2024-01-06T09:00:04;26.60;;;19.00;;
47912;SDS011;33676;51.006;17.180;2024-01-06T09:02:34;25.20;;;19.20;;
47912;SDS011;33676;51.006;17.180;2024-01-06T09:05:03;29.40;;;20.90;;
47912;SDS011;33676;51.006;17.180;2024-01-06T09:07:33;26.80;;;21.50;;
47912;SDS011;33676;51.006;17.180;2024-01-06T09:10:01;30.70;;;21.30;;
47912;SDS011;33676;51.006;17.180;2024-01-06T09:12:30;26.70;;;20.80;;
47912;SDS011;33676;51.006;17.180;2024-01-06T09:14:58;29.70;;;22.00;;
47912;SDS011;33676;51.006;17.180;2024-01-06T09:17:27;28.80;;;22.70;;
47912;SDS011;33676;51.006;17.180;2024-01-06T09:19:55;29.70;;;23.40;;
47912;SDS011;33676;51.006;17.180;2024-01-06T09:22:24;28.90;;;23.40;;
47912;SDS011;33676;51.006;17.180;2024-01-06T09:24:53;31.00;;;24.10;;
47912;SDS011;33676;51.006;17.180;2024-01-06T09:27:21;34.50;;;25.30;;
47912;SDS011;33676;51.006;17.180;2024-01-06T09:29:50;33.90;;;23.90;;
47912;SDS011;33676;51.006;17.180;2024-01-06T09:32:19;34.20;;;24.90;;
47912;SDS011;33676;51.006;17.180;2024-01-06T09:34:48;29.90;;;23.90;;
47912;SDS011;33676;51.006;17.180;2024-01-06T09:37:17;33.90;;;26.30;;
47912;SDS011;33676;51.006;17.180;2024-01-06T09:39:45;39.90;;;33.60;;
47912;SDS011;33676;51.006;17.180;2024-01-06T09:42:14;31.30;;;25.10;;
47912;SDS011;33676;51.006;17.180;2024-01-06T09:44:43;31.20;;;24.20;;
47912;SDS011;33676;51.006;17.180;2024-01-06T09:47:13;26.50;;;21.60;;
47912;SDS011;33676;51.006;17.180;2024-01-06T09:49:46;31.70;;;26.10;;
47912;SDS011;33676;51.006;17.180;2024-01-06T09:52:21;29.20;;;23.30;;
47912;SDS011;33676;51.006;17.180;2024-01-06T09:54:53;34.00;;;24.20;;
47912;SDS011;33676;51.006;17.180;2024-01-06T09:57:25;33.00;;;25.00;;
47912;SDS011;33676;51.006;17.180;2024-01-06T09:59:55;32.90;;;24.40;;
47912;SDS011;33676;51.006;17.180;2024-01-06T10:02:24;30.70;;;24.40;;
47912;SDS011;33676;51.006;17.180;2024-01-06T10:04:53;30.50;;;21.60;;
47912;SDS011;33676;51.006;17.180;2024-01-06T10:07:25;29.10;;;22.90;;
47912;SDS011;33676;51.006;17.180;2024-01-06T10:09:55;27.90;;;23.50;;
47912;SDS011;33676;51.006;17.180;2024-01-06T10:12:26;29.40;;;24.70;;
47912;SDS011;33676;51.006;17.180;2024-01-06T10:15:00;29.70;;;22.10;;
47912;SDS011;33676;51.006;17.180;2024-01-06T10:17:29;30.50;;;23.50;;
47912;SDS011;33676;51.006;17.180;2024-01-06T10:19:58;34.20;;;25.00;;
47912;SDS011;33676;51.006;17.180;2024-01-06T10:22:28;32.90;;;22.50;;
47912;SDS011;33676;51.006;17.180;2024-01-06T10:24:56;31.00;;;25.50;;
47912;SDS011;33676;51.006;17.180;2024-01-06T10:27:26;32.20;;;23.50;;
47912;SDS011;33676;51.006;17.180;2024-01-06T10:29:56;34.30;;;24.40;;
47912;SDS011;33676;51.006;17.180;2024-01-06T10:32:26;29.70;;;23.30;;
47912;SDS011;33676;51.006;17.180;2024-01-06T10:35:00;31.90;;;19.90;;
47912;SDS011;33676;51.006;17.180;2024-01-06T10:37:31;27.30;;;22.80;;
47912;SDS011;33676;51.006;17.180;2024-01-06T10:40:14;25.60;;;20.60;;
47912;SDS011;33676;51.006;17.180;2024-01-06T10:42:45;26.00;;;19.80;;
47912;SDS011;33676;51.006;17.180;2024-01-06T10:45:16;28.20;;;21.60;;
47912;SDS011;33676;51.006;17.180;2024-01-06T10:47:46;22.90;;;20.40;;
47912;SDS011;33676;51.006;17.180;2024-01-06T10:50:19;28.90;;;24.60;;
47912;SDS011;33676;51.006;17.180;2024-01-06T10:52:50;26.40;;;21.70;;
47912;SDS011;33676;51.006;17.180;2024-01-06T10:55:20;23.40;;;18.80;;
47912;SDS011;33676;51.006;17.180;2024-01-06T10:57:52;24.90;;;20.50;;
47912;SDS011;33676;51.006;17.180;2024-01-06T11:00:22;28.80;;;22.40;;
47912;SDS011;33676;51.006;17.180;2024-01-06T11:02:53;27.30;;;21.20;;
47912;SDS011;33676;51.006;17.180;2024-01-06T11:05:24;27.30;;;19.80;;
47912;SDS011;33676;51.006;17.180;2024-01-06T11:07:57;25.40;;;21.20;;
47912;SDS011;33676;51.006;17.180;2024-01-06T11:10:29;27.90;;;20.90;;
47912;SDS011;33676;51.006;17.180;2024-01-06T11:13:10;26.40;;;20.40;;
47912;SDS011;33676;51.006;17.180;2024-01-06T11:15:49;27.30;;;22.30;;
47912;SDS011;33676;51.006;17.180;2024-01-06T11:18:39;26.80;;;21.50;;
47912;SDS011;33676;51.006;17.180;2024-01-06T11:21:19;33.80;;;25.40;;
47912;SDS011;33676;51.006;17.180;2024-01-06T11:26:52;51.50;;;41.30;;
47912;SDS011;33676;51.006;17.180;2024-01-06T11:29:23;34.40;;;24.80;;
47912;SDS011;33676;51.006;17.180;2024-01-06T11:38:03;24.40;;;20.40;;
47912;SDS011;33676;51.006;17.180;2024-01-06T11:40:36;26.40;;;22.50;;
47912;SDS011;33676;51.006;17.180;2024-01-06T11:43:09;27.20;;;20.20;;
47912;SDS011;33676;51.006;17.180;2024-01-06T11:45:40;28.80;;;21.80;;
47912;SDS011;33676;51.006;17.180;2024-01-06T11:48:11;28.90;;;22.40;;
47912;SDS011;33676;51.006;17.180;2024-01-06T11:50:58;31.20;;;23.30;;
47912;SDS011;33676;51.006;17.180;2024-01-06T11:53:27;30.60;;;23.80;;
47912;SDS011;33676;51.006;17.180;2024-01-06T11:55:56;29.40;;;23.00;;
47912;SDS011;33676;51.006;17.180;2024-01-06T11:58:24;28.20;;;24.20;;
47912;SDS011;33676;51.006;17.180;2024-01-06T12:00:56;32.00;;;26.20;;
47912;SDS011;33676;51.006;17.180;2024-01-06T12:03:27;30.80;;;23.30;;
47912;SDS011;33676;51.006;17.180;2024-01-06T12:06:00;32.40;;;25.30;;
47912;SDS011;33676;51.006;17.180;2024-01-06T12:08:31;32.40;;;23.40;;
47912;SDS011;33676;51.006;17.180;2024-01-06T12:11:03;33.50;;;22.60;;
47912;SDS011;33676;51.006;17.180;2024-01-06T12:13:31;34.00;;;24.40;;
47912;SDS011;33676;51.006;17.180;2024-01-06T12:16:00;34.90;;;25.40;;
47912;SDS011;33676;51.006;17.180;2024-01-06T12:18:29;33.90;;;26.30;;
47912;SDS011;33676;51.006;17.180;2024-01-06T12:20:58;34.40;;;24.80;;
47912;SDS011;33676;51.006;17.180;2024-01-06T12:23:27;34.90;;;26.60;;
47912;SDS011;33676;51.006;17.180;2024-01-06T12:25:56;39.00;;;29.40;;
47912;SDS011;33676;51.006;17.180;2024-01-06T12:28:26;37.90;;;28.50;;
47912;SDS011;33676;51.006;17.180;2024-01-06T12:30:55;45.80;;;32.50;;
47912;SDS011;33676;51.006;17.180;2024-01-06T12:33:24;40.90;;;31.30;;
47912;SDS011;33676;51.006;17.180;2024-01-06T12:35:53;40.00;;;29.40;;
47912;SDS011;33676;51.006;17.180;2024-01-06T12:38:21;41.60;;;30.30;;
47912;SDS011;33676;51.006;17.180;2024-01-06T12:40:50;39.40;;;31.20;;
47912;SDS011;33676;51.006;17.180;2024-01-06T12:43:18;41.30;;;30.50;;
47912;SDS011;33676;51.006;17.180;2024-01-06T12:45:47;45.60;;;33.00;;
47912;SDS011;33676;51.006;17.180;2024-01-06T12:48:15;42.80;;;32.50;;
47912;SDS011;33676;51.006;17.180;2024-01-06T12:50:44;45.20;;;31.80;;
47912;SDS011;33676;51.006;17.180;2024-01-06T12:53:12;43.60;;;33.10;;
47912;SDS011;33676;51.006;17.180;2024-01-06T12:55:44;44.80;;;34.10;;
47912;SDS011;33676;51.006;17.180;2024-01-06T12:58:12;45.20;;;33.70;;
47912;SDS011;33676;51.006;17.180;2024-01-06T13:00:41;45.30;;;34.90;;
47912;SDS011;33676;51.006;17.180;2024-01-06T13:03:10;47.10;;;33.70;;
47912;SDS011;33676;51.006;17.180;2024-01-06T13:05:40;47.70;;;34.90;;
47912;SDS011;33676;51.006;17.180;2024-01-06T13:08:08;42.20;;;32.30;;
47912;SDS011;33676;51.006;17.180;2024-01-06T13:10:37;39.50;;;29.70;;
47912;SDS011;33676;51.006;17.180;2024-01-06T13:13:05;39.00;;;29.20;;
47912;SDS011;33676;51.006;17.180;2024-01-06T13:15:34;42.20;;;31.00;;
47912;SDS011;33676;51.006;17.180;2024-01-06T13:18:03;44.90;;;33.50;;
47912;SDS011;33676;51.006;17.180;2024-01-06T13:20:32;41.20;;;32.30;;
47912;SDS011;33676;51.006;17.180;2024-01-06T13:23:00;46.00;;;31.60;;
47912;SDS011;33676;51.006;17.180;2024-01-06T13:25:29;44.00;;;31.90;;
47912;SDS011;33676;51.006;17.180;2024-01-06T13:27:58;40.90;;;28.60;;
47912;SDS011;33676;51.006;17.180;2024-01-06T13:30:26;47.80;;;30.60;;
47912;SDS011;33676;51.006;17.180;2024-01-06T13:32:56;40.70;;;28.30;;
47912;SDS011;33676;51.006;17.180;2024-01-06T13:35:25;44.20;;;31.40;;
47912;SDS011;33676;51.006;17.180;2024-01-06T13:37:54;38.20;;;29.80;;
47912;SDS011;33676;51.006;17.180;2024-01-06T13:40:27;42.00;;;31.40;;
47912;SDS011;33676;51.006;17.180;2024-01-06T13:42:56;41.30;;;29.90;;
47912;SDS011;33676;51.006;17.180;2024-01-06T13:45:24;43.40;;;32.10;;
47912;SDS011;33676;51.006;17.180;2024-01-06T13:47:53;43.90;;;31.40;;
47912;SDS011;33676;51.006;17.180;2024-01-06T13:50:21;47.30;;;29.40;;
47912;SDS011;33676;51.006;17.180;2024-01-06T13:52:50;46.80;;;30.70;;
47912;SDS011;33676;51.006;17.180;2024-01-06T13:55:18;40.10;;;29.90;;
47912;SDS011;33676;51.006;17.180;2024-01-06T13:57:47;45.60;;;31.20;;
47912;SDS011;33676;51.006;17.180;2024-01-06T14:00:16;39.80;;;29.80;;
47912;SDS011;33676;51.006;17.180;2024-01-06T14:02:48;52.80;;;34.90;;
47912;SDS011;33676;51.006;17.180;2024-01-06T14:05:17;47.40;;;32.40;;
47912;SDS011;33676;51.006;17.180;2024-01-06T14:07:48;49.40;;;34.10;;
47912;SDS011;33676;51.006;17.180;2024-01-06T14:10:20;44.60;;;30.50;;
47912;SDS011;33676;51.006;17.180;2024-01-06T14:12:48;46.50;;;33.80;;
47912;SDS011;33676;51.006;17.180;2024-01-06T14:15:17;46.60;;;32.60;;
47912;SDS011;33676;51.006;17.180;2024-01-06T14:17:47;43.50;;;30.50;;
47912;SDS011;33676;51.006;17.180;2024-01-06T14:20:18;58.70;;;39.50;;
47912;SDS011;33676;51.006;17.180;2024-01-06T14:22:47;68.10;;;42.70;;
47912;SDS011;33676;51.006;17.180;2024-01-06T14:25:18;49.40;;;34.30;;
47912;SDS011;33676;51.006;17.180;2024-01-06T14:27:47;46.60;;;32.90;;
47912;SDS011;33676;51.006;17.180;2024-01-06T14:30:16;44.10;;;32.20;;
47912;SDS011;33676;51.006;17.180;2024-01-06T14:32:45;52.20;;;38.00;;
47912;SDS011;33676;51.006;17.180;2024-01-06T14:35:14;49.80;;;35.30;;
47912;SDS011;33676;51.006;17.180;2024-01-06T14:37:44;52.00;;;34.80;;